<?xml version="1.0" encoding="UTF-8" standalone="no" ?>
<gpx xmlns="http://www.topografix.com/GPX/1/1" xmlns:xsi="http://www.w3.org/2001/XMLSchema-instance" xsi:schemaLocation="http://www.topografix.com/GPX/1/1 http://www.topografix.com/GPX/1/1/gpx.xsd" version="1.1" creator="VisuGPX - https://www.visugpx.com">
  <metadata>
    <name>refuge des Sources depuis Villard Notre Dame</name>
    <desc><![CDATA[chemin chiant mais refuge sympa !]]></desc>
  </metadata>
  <trk>
    <name><![CDATA[refuge des Sources]]></name>
    <desc><![CDATA[<p>Heure de départ: 09:21 5 juin 2025<br/>Heure d'arrivée: 16:08 5 juin 2025<br/>Distance: 7,7 km (06:47)<br/>Temps déplacement: 03:24<br/>Vitesse moyenne: 1,13 km/h<br/>Vitesse moyenne mouv.: 2,26 km/h<br/>Vitesse Max.: 5,73 km/h<br/>Altitude minimale: 1428 m<br/>Altitude maximale: 2282 m<br/>Vitesse de montée: 297,8 m/h<br/>Vitesse de descente: -366,1 m/h<br/>Gain d'altitude: 940 m<br/>Perte d'altitude: -963 m<br/>Temps de montée: 03:09<br/>Temps de descente: 02:37<br/></p><hr align="center" width="480" style="height: 2px; width: 517px"/>]]></desc>
    <extensions>
      <line xmlns="http://www.topografix.com/GPX/gpx_style/0/2">
        <color>ff0019</color>
        <opacity>0.8</opacity>
        <width>4</width>
          <extensions>
            <sens>1</sens>
          </extensions>
      </line>
    </extensions>
    <trkseg>
      <trkpt lat="45.01782" lon="6.04085">
        <ele>1490.62</ele>
        <time>2025-06-05T07:21:22Z</time>
      </trkpt>
      <trkpt lat="45.01796" lon="6.04068">
        <ele>1494.73</ele>
        <time>2025-06-05T07:22:09Z</time>
      </trkpt>
      <trkpt lat="45.01795" lon="6.04043">
        <ele>1487.07</ele>
        <time>2025-06-05T07:31:24Z</time>
      </trkpt>
      <trkpt lat="45.01792" lon="6.04017">
        <ele>1484.74</ele>
        <time>2025-06-05T07:31:44Z</time>
      </trkpt>
      <trkpt lat="45.01776" lon="6.04002">
        <ele>1484.04</ele>
        <time>2025-06-05T07:32:03Z</time>
      </trkpt>
      <trkpt lat="45.0176" lon="6.0399">
        <ele>1480.77</ele>
        <time>2025-06-05T07:32:25Z</time>
      </trkpt>
      <trkpt lat="45.01743" lon="6.03978">
        <ele>1477.74</ele>
        <time>2025-06-05T07:32:48Z</time>
      </trkpt>
      <trkpt lat="45.01729" lon="6.03963">
        <ele>1476.81</ele>
        <time>2025-06-05T07:33:11Z</time>
      </trkpt>
      <trkpt lat="45.01717" lon="6.03943">
        <ele>1477.71</ele>
        <time>2025-06-05T07:33:27Z</time>
      </trkpt>
      <trkpt lat="45.01703" lon="6.03925">
        <ele>1478.82</ele>
        <time>2025-06-05T07:33:42Z</time>
      </trkpt>
      <trkpt lat="45.01688" lon="6.03942">
        <ele>1479.65</ele>
        <time>2025-06-05T07:34:27Z</time>
      </trkpt>
      <trkpt lat="45.01679" lon="6.03964">
        <ele>1480.44</ele>
        <time>2025-06-05T07:35:19Z</time>
      </trkpt>
      <trkpt lat="45.01668" lon="6.03985">
        <ele>1479.65</ele>
        <time>2025-06-05T07:35:41Z</time>
      </trkpt>
      <trkpt lat="45.01652" lon="6.03999">
        <ele>1479.74</ele>
        <time>2025-06-05T07:36:03Z</time>
      </trkpt>
      <trkpt lat="45.01634" lon="6.04009">
        <ele>1480.71</ele>
        <time>2025-06-05T07:36:25Z</time>
      </trkpt>
      <trkpt lat="45.01641" lon="6.04032">
        <ele>1479.53</ele>
        <time>2025-06-05T07:36:46Z</time>
      </trkpt>
      <trkpt lat="45.01646" lon="6.04058">
        <ele>1482.72</ele>
        <time>2025-06-05T07:37:16Z</time>
      </trkpt>
      <trkpt lat="45.0164" lon="6.04082">
        <ele>1488.74</ele>
        <time>2025-06-05T07:37:56Z</time>
      </trkpt>
      <trkpt lat="45.01631" lon="6.04105">
        <ele>1492.47</ele>
        <time>2025-06-05T07:38:27Z</time>
      </trkpt>
      <trkpt lat="45.01622" lon="6.04129">
        <ele>1497.75</ele>
        <time>2025-06-05T07:38:59Z</time>
      </trkpt>
      <trkpt lat="45.01608" lon="6.04146">
        <ele>1501.71</ele>
        <time>2025-06-05T07:39:34Z</time>
      </trkpt>
      <trkpt lat="45.01593" lon="6.04161">
        <ele>1504.44</ele>
        <time>2025-06-05T07:40:35Z</time>
      </trkpt>
      <trkpt lat="45.01574" lon="6.04162">
        <ele>1509.71</ele>
        <time>2025-06-05T07:40:58Z</time>
      </trkpt>
      <trkpt lat="45.01556" lon="6.04169">
        <ele>1504.13</ele>
        <time>2025-06-05T07:41:13Z</time>
      </trkpt>
      <trkpt lat="45.01539" lon="6.04183">
        <ele>1507.44</ele>
        <time>2025-06-05T07:41:30Z</time>
      </trkpt>
      <trkpt lat="45.01523" lon="6.04194">
        <ele>1508.74</ele>
        <time>2025-06-05T07:41:48Z</time>
      </trkpt>
      <trkpt lat="45.01505" lon="6.04198">
        <ele>1508.74</ele>
        <time>2025-06-05T07:42:09Z</time>
      </trkpt>
      <trkpt lat="45.01486" lon="6.04197">
        <ele>1504.05</ele>
        <time>2025-06-05T07:43:09Z</time>
      </trkpt>
      <trkpt lat="45.01468" lon="6.0419">
        <ele>1501.83</ele>
        <time>2025-06-05T07:43:27Z</time>
      </trkpt>
      <trkpt lat="45.01453" lon="6.04175">
        <ele>1498.74</ele>
        <time>2025-06-05T07:43:50Z</time>
      </trkpt>
      <trkpt lat="45.0144" lon="6.04157">
        <ele>1491.77</ele>
        <time>2025-06-05T07:44:10Z</time>
      </trkpt>
      <trkpt lat="45.01423" lon="6.04145">
        <ele>1487.75</ele>
        <time>2025-06-05T07:44:51Z</time>
      </trkpt>
      <trkpt lat="45.01405" lon="6.04136">
        <ele>1489.73</ele>
        <time>2025-06-05T07:45:10Z</time>
      </trkpt>
      <trkpt lat="45.01388" lon="6.04124">
        <ele>1486.75</ele>
        <time>2025-06-05T07:45:31Z</time>
      </trkpt>
      <trkpt lat="45.01372" lon="6.04112">
        <ele>1483.75</ele>
        <time>2025-06-05T07:45:49Z</time>
      </trkpt>
      <trkpt lat="45.01356" lon="6.04098">
        <ele>1479.47</ele>
        <time>2025-06-05T07:46:10Z</time>
      </trkpt>
      <trkpt lat="45.01345" lon="6.04079">
        <ele>1472.04</ele>
        <time>2025-06-05T07:46:30Z</time>
      </trkpt>
      <trkpt lat="45.01333" lon="6.04059">
        <ele>1468.74</ele>
        <time>2025-06-05T07:47:03Z</time>
      </trkpt>
      <trkpt lat="45.01316" lon="6.04051">
        <ele>1463.76</ele>
        <time>2025-06-05T07:47:41Z</time>
      </trkpt>
      <trkpt lat="45.01301" lon="6.04036">
        <ele>1460.86</ele>
        <time>2025-06-05T07:48:08Z</time>
      </trkpt>
      <trkpt lat="45.0129" lon="6.04016">
        <ele>1457.73</ele>
        <time>2025-06-05T07:48:33Z</time>
      </trkpt>
      <trkpt lat="45.01282" lon="6.03993">
        <ele>1457.83</ele>
        <time>2025-06-05T07:49:14Z</time>
      </trkpt>
      <trkpt lat="45.01279" lon="6.03967">
        <ele>1454.05</ele>
        <time>2025-06-05T07:50:05Z</time>
      </trkpt>
      <trkpt lat="45.01265" lon="6.03949">
        <ele>1442.84</ele>
        <time>2025-06-05T07:50:36Z</time>
      </trkpt>
      <trkpt lat="45.0125" lon="6.03936">
        <ele>1432.84</ele>
        <time>2025-06-05T07:51:06Z</time>
      </trkpt>
      <trkpt lat="45.01232" lon="6.03928">
        <ele>1430.23</ele>
        <time>2025-06-05T07:51:36Z</time>
      </trkpt>
      <trkpt lat="45.01215" lon="6.03937">
        <ele>1428.98</ele>
        <time>2025-06-05T07:52:06Z</time>
      </trkpt>
      <trkpt lat="45.01207" lon="6.0396">
        <ele>1432.01</ele>
        <time>2025-06-05T07:52:26Z</time>
      </trkpt>
      <trkpt lat="45.01212" lon="6.03985">
        <ele>1451.73</ele>
        <time>2025-06-05T07:56:26Z</time>
      </trkpt>
      <trkpt lat="45.01196" lon="6.03997">
        <ele>1458.74</ele>
        <time>2025-06-05T07:59:40Z</time>
      </trkpt>
      <trkpt lat="45.0118" lon="6.03985">
        <ele>1460.71</ele>
        <time>2025-06-05T07:59:54Z</time>
      </trkpt>
      <trkpt lat="45.01162" lon="6.03989">
        <ele>1460.72</ele>
        <time>2025-06-05T08:00:12Z</time>
      </trkpt>
      <trkpt lat="45.01143" lon="6.03983">
        <ele>1459.34</ele>
        <time>2025-06-05T08:00:35Z</time>
      </trkpt>
      <trkpt lat="45.01125" lon="6.03988">
        <ele>1456.98</ele>
        <time>2025-06-05T08:01:02Z</time>
      </trkpt>
      <trkpt lat="45.01107" lon="6.03994">
        <ele>1459.53</ele>
        <time>2025-06-05T08:04:47Z</time>
      </trkpt>
      <trkpt lat="45.01092" lon="6.04009">
        <ele>1459.74</ele>
        <time>2025-06-05T08:05:08Z</time>
      </trkpt>
      <trkpt lat="45.01075" lon="6.04019">
        <ele>1456.84</ele>
        <time>2025-06-05T08:05:31Z</time>
      </trkpt>
      <trkpt lat="45.01056" lon="6.04022">
        <ele>1459.73</ele>
        <time>2025-06-05T08:06:08Z</time>
      </trkpt>
      <trkpt lat="45.01038" lon="6.04029">
        <ele>1464.74</ele>
        <time>2025-06-05T08:06:33Z</time>
      </trkpt>
      <trkpt lat="45.01019" lon="6.0403">
        <ele>1466.73</ele>
        <time>2025-06-05T08:06:58Z</time>
      </trkpt>
      <trkpt lat="45.01003" lon="6.04041">
        <ele>1469.35</ele>
        <time>2025-06-05T08:07:23Z</time>
      </trkpt>
      <trkpt lat="45.00984" lon="6.04046">
        <ele>1470.74</ele>
        <time>2025-06-05T08:07:40Z</time>
      </trkpt>
      <trkpt lat="45.00966" lon="6.04048">
        <ele>1473.74</ele>
        <time>2025-06-05T08:07:59Z</time>
      </trkpt>
      <trkpt lat="45.00948" lon="6.0405">
        <ele>1474.77</ele>
        <time>2025-06-05T08:08:19Z</time>
      </trkpt>
      <trkpt lat="45.0093" lon="6.04051">
        <ele>1473.83</ele>
        <time>2025-06-05T08:09:22Z</time>
      </trkpt>
      <trkpt lat="45.00912" lon="6.04064">
        <ele>1475.65</ele>
        <time>2025-06-05T08:09:44Z</time>
      </trkpt>
      <trkpt lat="45.00897" lon="6.04077">
        <ele>1472.84</ele>
        <time>2025-06-05T08:10:08Z</time>
      </trkpt>
      <trkpt lat="45.00886" lon="6.04098">
        <ele>1477.74</ele>
        <time>2025-06-05T08:10:28Z</time>
      </trkpt>
      <trkpt lat="45.00874" lon="6.04118">
        <ele>1482.74</ele>
        <time>2025-06-05T08:11:02Z</time>
      </trkpt>
      <trkpt lat="45.00861" lon="6.04099">
        <ele>1494.64</ele>
        <time>2025-06-05T08:13:31Z</time>
      </trkpt>
      <trkpt lat="45.00843" lon="6.04093">
        <ele>1495.74</ele>
        <time>2025-06-05T08:14:21Z</time>
      </trkpt>
      <trkpt lat="45.00827" lon="6.0408">
        <ele>1502.73</ele>
        <time>2025-06-05T08:15:06Z</time>
      </trkpt>
      <trkpt lat="45.0081" lon="6.04069">
        <ele>1502.73</ele>
        <time>2025-06-05T08:15:43Z</time>
      </trkpt>
      <trkpt lat="45.00805" lon="6.04044">
        <ele>1518.43</ele>
        <time>2025-06-05T08:17:00Z</time>
      </trkpt>
      <trkpt lat="45.00819" lon="6.04027">
        <ele>1532.4</ele>
        <time>2025-06-05T08:18:12Z</time>
      </trkpt>
      <trkpt lat="45.00812" lon="6.04004">
        <ele>1540.73</ele>
        <time>2025-06-05T08:19:12Z</time>
      </trkpt>
      <trkpt lat="45.00795" lon="6.03992">
        <ele>1546.45</ele>
        <time>2025-06-05T08:20:11Z</time>
      </trkpt>
      <trkpt lat="45.00788" lon="6.03968">
        <ele>1555.74</ele>
        <time>2025-06-05T08:21:53Z</time>
      </trkpt>
      <trkpt lat="45.00775" lon="6.03949">
        <ele>1564.74</ele>
        <time>2025-06-05T08:29:45Z</time>
      </trkpt>
      <trkpt lat="45.00763" lon="6.03931">
        <ele>1574.73</ele>
        <time>2025-06-05T08:30:45Z</time>
      </trkpt>
      <trkpt lat="45.00748" lon="6.03913">
        <ele>1584.04</ele>
        <time>2025-06-05T08:32:07Z</time>
      </trkpt>
      <trkpt lat="45.00734" lon="6.03897">
        <ele>1590.62</ele>
        <time>2025-06-05T08:32:57Z</time>
      </trkpt>
      <trkpt lat="45.00719" lon="6.03882">
        <ele>1605.44</ele>
        <time>2025-06-05T08:34:04Z</time>
      </trkpt>
      <trkpt lat="45.00703" lon="6.03871">
        <ele>1609.83</ele>
        <time>2025-06-05T08:35:06Z</time>
      </trkpt>
      <trkpt lat="45.00687" lon="6.03859">
        <ele>1616.73</ele>
        <time>2025-06-05T08:36:12Z</time>
      </trkpt>
      <trkpt lat="45.0067" lon="6.03847">
        <ele>1628.5</ele>
        <time>2025-06-05T08:39:53Z</time>
      </trkpt>
      <trkpt lat="45.00652" lon="6.03847">
        <ele>1632.04</ele>
        <time>2025-06-05T08:40:31Z</time>
      </trkpt>
      <trkpt lat="45.00635" lon="6.03837">
        <ele>1630.65</ele>
        <time>2025-06-05T08:41:05Z</time>
      </trkpt>
      <trkpt lat="45.00616" lon="6.03831">
        <ele>1633.04</ele>
        <time>2025-06-05T08:41:55Z</time>
      </trkpt>
      <trkpt lat="45.00599" lon="6.03824">
        <ele>1633.77</ele>
        <time>2025-06-05T08:42:39Z</time>
      </trkpt>
      <trkpt lat="45.0058" lon="6.0382">
        <ele>1635.05</ele>
        <time>2025-06-05T08:43:15Z</time>
      </trkpt>
      <trkpt lat="45.00563" lon="6.03812">
        <ele>1640.48</ele>
        <time>2025-06-05T08:43:54Z</time>
      </trkpt>
      <trkpt lat="45.00548" lon="6.03798">
        <ele>1644.71</ele>
        <time>2025-06-05T08:44:39Z</time>
      </trkpt>
      <trkpt lat="45.00531" lon="6.03787">
        <ele>1644.65</ele>
        <time>2025-06-05T08:45:11Z</time>
      </trkpt>
      <trkpt lat="45.00522" lon="6.03764">
        <ele>1654.72</ele>
        <time>2025-06-05T08:46:15Z</time>
      </trkpt>
      <trkpt lat="45.00509" lon="6.03745">
        <ele>1660.74</ele>
        <time>2025-06-05T08:47:05Z</time>
      </trkpt>
      <trkpt lat="45.00494" lon="6.03731">
        <ele>1664.74</ele>
        <time>2025-06-05T08:47:48Z</time>
      </trkpt>
      <trkpt lat="45.00479" lon="6.03717">
        <ele>1670.62</ele>
        <time>2025-06-05T08:48:21Z</time>
      </trkpt>
      <trkpt lat="45.0047" lon="6.03695">
        <ele>1674.72</ele>
        <time>2025-06-05T08:49:13Z</time>
      </trkpt>
      <trkpt lat="45.00455" lon="6.03682">
        <ele>1674.65</ele>
        <time>2025-06-05T08:50:40Z</time>
      </trkpt>
      <trkpt lat="45.00438" lon="6.03669">
        <ele>1682.75</ele>
        <time>2025-06-05T08:51:23Z</time>
      </trkpt>
      <trkpt lat="45.00422" lon="6.03657">
        <ele>1688.74</ele>
        <time>2025-06-05T08:52:06Z</time>
      </trkpt>
      <trkpt lat="45.00405" lon="6.03648">
        <ele>1694.44</ele>
        <time>2025-06-05T08:52:44Z</time>
      </trkpt>
      <trkpt lat="45.00387" lon="6.0364">
        <ele>1694.76</ele>
        <time>2025-06-05T08:53:24Z</time>
      </trkpt>
      <trkpt lat="45.00371" lon="6.03627">
        <ele>1694.71</ele>
        <time>2025-06-05T08:53:58Z</time>
      </trkpt>
      <trkpt lat="45.0036" lon="6.03607">
        <ele>1708.44</ele>
        <time>2025-06-05T08:55:06Z</time>
      </trkpt>
      <trkpt lat="45.00343" lon="6.03595">
        <ele>1715.74</ele>
        <time>2025-06-05T08:55:52Z</time>
      </trkpt>
      <trkpt lat="45.00328" lon="6.0358">
        <ele>1721.65</ele>
        <time>2025-06-05T08:57:07Z</time>
      </trkpt>
      <trkpt lat="45.00312" lon="6.03567">
        <ele>1729.12</ele>
        <time>2025-06-05T08:57:46Z</time>
      </trkpt>
      <trkpt lat="45.00295" lon="6.03558">
        <ele>1731.74</ele>
        <time>2025-06-05T08:58:23Z</time>
      </trkpt>
      <trkpt lat="45.00277" lon="6.03557">
        <ele>1739.56</ele>
        <time>2025-06-05T08:59:06Z</time>
      </trkpt>
      <trkpt lat="45.0026" lon="6.03548">
        <ele>1744.73</ele>
        <time>2025-06-05T08:59:45Z</time>
      </trkpt>
      <trkpt lat="45.00242" lon="6.03539">
        <ele>1753.74</ele>
        <time>2025-06-05T09:00:40Z</time>
      </trkpt>
      <trkpt lat="45.00224" lon="6.03536">
        <ele>1757.74</ele>
        <time>2025-06-05T09:01:27Z</time>
      </trkpt>
      <trkpt lat="45.00208" lon="6.03523">
        <ele>1763.74</ele>
        <time>2025-06-05T09:02:33Z</time>
      </trkpt>
      <trkpt lat="45.00193" lon="6.03509">
        <ele>1769.44</ele>
        <time>2025-06-05T09:03:22Z</time>
      </trkpt>
      <trkpt lat="45.00175" lon="6.03513">
        <ele>1773.65</ele>
        <time>2025-06-05T09:04:16Z</time>
      </trkpt>
      <trkpt lat="45.00157" lon="6.03519">
        <ele>1779.74</ele>
        <time>2025-06-05T09:05:10Z</time>
      </trkpt>
      <trkpt lat="45.00139" lon="6.0352">
        <ele>1787.75</ele>
        <time>2025-06-05T09:06:31Z</time>
      </trkpt>
      <trkpt lat="45.00125" lon="6.03504">
        <ele>1801.14</ele>
        <time>2025-06-05T09:16:30Z</time>
      </trkpt>
      <trkpt lat="45.00107" lon="6.03498">
        <ele>1806.74</ele>
        <time>2025-06-05T09:17:24Z</time>
      </trkpt>
      <trkpt lat="45.00092" lon="6.03484">
        <ele>1821.56</ele>
        <time>2025-06-05T09:18:51Z</time>
      </trkpt>
      <trkpt lat="45.00078" lon="6.03468">
        <ele>1829.74</ele>
        <time>2025-06-05T09:20:08Z</time>
      </trkpt>
      <trkpt lat="45.00063" lon="6.03453">
        <ele>1838.74</ele>
        <time>2025-06-05T09:21:39Z</time>
      </trkpt>
      <trkpt lat="45.00045" lon="6.03452">
        <ele>1845.74</ele>
        <time>2025-06-05T09:22:57Z</time>
      </trkpt>
      <trkpt lat="45.00027" lon="6.03447">
        <ele>1853.5</ele>
        <time>2025-06-05T09:24:27Z</time>
      </trkpt>
      <trkpt lat="45.00013" lon="6.03431">
        <ele>1857.74</ele>
        <time>2025-06-05T09:25:25Z</time>
      </trkpt>
      <trkpt lat="44.99995" lon="6.03429">
        <ele>1866.03</ele>
        <time>2025-06-05T09:26:26Z</time>
      </trkpt>
      <trkpt lat="44.99977" lon="6.03427">
        <ele>1875.74</ele>
        <time>2025-06-05T09:27:09Z</time>
      </trkpt>
      <trkpt lat="44.99961" lon="6.03415">
        <ele>1879.44</ele>
        <time>2025-06-05T09:28:05Z</time>
      </trkpt>
      <trkpt lat="44.99945" lon="6.03401">
        <ele>1889.71</ele>
        <time>2025-06-05T09:28:53Z</time>
      </trkpt>
      <trkpt lat="44.99928" lon="6.03391">
        <ele>1891.74</ele>
        <time>2025-06-05T09:29:31Z</time>
      </trkpt>
      <trkpt lat="44.99911" lon="6.03381">
        <ele>1895.65</ele>
        <time>2025-06-05T09:30:07Z</time>
      </trkpt>
      <trkpt lat="44.99893" lon="6.03373">
        <ele>1896.44</ele>
        <time>2025-06-05T09:30:51Z</time>
      </trkpt>
      <trkpt lat="44.99876" lon="6.03361">
        <ele>1900.71</ele>
        <time>2025-06-05T09:31:31Z</time>
      </trkpt>
      <trkpt lat="44.9986" lon="6.03349">
        <ele>1905.53</ele>
        <time>2025-06-05T09:32:13Z</time>
      </trkpt>
      <trkpt lat="44.99842" lon="6.03344">
        <ele>1908.56</ele>
        <time>2025-06-05T09:33:03Z</time>
      </trkpt>
      <trkpt lat="44.99824" lon="6.03337">
        <ele>1920.73</ele>
        <time>2025-06-05T09:34:12Z</time>
      </trkpt>
      <trkpt lat="44.99811" lon="6.03319">
        <ele>1934.75</ele>
        <time>2025-06-05T09:35:25Z</time>
      </trkpt>
      <trkpt lat="44.99805" lon="6.03295">
        <ele>1945.82</ele>
        <time>2025-06-05T09:36:43Z</time>
      </trkpt>
      <trkpt lat="44.99807" lon="6.0327">
        <ele>1956.65</ele>
        <time>2025-06-05T09:38:00Z</time>
      </trkpt>
      <trkpt lat="44.99819" lon="6.03248">
        <ele>1965.44</ele>
        <time>2025-06-05T09:39:34Z</time>
      </trkpt>
      <trkpt lat="44.99823" lon="6.03221">
        <ele>1975.44</ele>
        <time>2025-06-05T09:40:53Z</time>
      </trkpt>
      <trkpt lat="44.99829" lon="6.03197">
        <ele>1986.74</ele>
        <time>2025-06-05T09:41:56Z</time>
      </trkpt>
      <trkpt lat="44.99837" lon="6.03173">
        <ele>1992.77</ele>
        <time>2025-06-05T09:43:04Z</time>
      </trkpt>
      <trkpt lat="44.99847" lon="6.03152">
        <ele>2002.43</ele>
        <time>2025-06-05T09:44:03Z</time>
      </trkpt>
      <trkpt lat="44.99859" lon="6.03133">
        <ele>2007.83</ele>
        <time>2025-06-05T09:45:07Z</time>
      </trkpt>
      <trkpt lat="44.99877" lon="6.03141">
        <ele>2016.36</ele>
        <time>2025-06-05T09:46:43Z</time>
      </trkpt>
      <trkpt lat="44.99894" lon="6.03134">
        <ele>2026.01</ele>
        <time>2025-06-05T09:47:52Z</time>
      </trkpt>
      <trkpt lat="44.99897" lon="6.03108">
        <ele>2035.74</ele>
        <time>2025-06-05T09:49:28Z</time>
      </trkpt>
      <trkpt lat="44.99897" lon="6.03082">
        <ele>2051.7</ele>
        <time>2025-06-05T09:57:33Z</time>
      </trkpt>
      <trkpt lat="44.99897" lon="6.03056">
        <ele>2067.01</ele>
        <time>2025-06-05T09:58:57Z</time>
      </trkpt>
      <trkpt lat="44.99898" lon="6.0303">
        <ele>2071.44</ele>
        <time>2025-06-05T10:00:39Z</time>
      </trkpt>
      <trkpt lat="44.99901" lon="6.03005">
        <ele>2080.83</ele>
        <time>2025-06-05T10:02:29Z</time>
      </trkpt>
      <trkpt lat="44.99886" lon="6.02989">
        <ele>2078.51</ele>
        <time>2025-06-05T10:03:33Z</time>
      </trkpt>
      <trkpt lat="44.99881" lon="6.02965">
        <ele>2094.75</ele>
        <time>2025-06-05T10:04:50Z</time>
      </trkpt>
      <trkpt lat="44.99872" lon="6.02942">
        <ele>2100.72</ele>
        <time>2025-06-05T10:05:51Z</time>
      </trkpt>
      <trkpt lat="44.99865" lon="6.02918">
        <ele>2112.74</ele>
        <time>2025-06-05T10:07:00Z</time>
      </trkpt>
      <trkpt lat="44.99852" lon="6.02896">
        <ele>2115.14</ele>
        <time>2025-06-05T10:08:16Z</time>
      </trkpt>
      <trkpt lat="44.99835" lon="6.02888">
        <ele>2123.75</ele>
        <time>2025-06-05T10:09:31Z</time>
      </trkpt>
      <trkpt lat="44.99829" lon="6.02864">
        <ele>2130.15</ele>
        <time>2025-06-05T10:10:48Z</time>
      </trkpt>
      <trkpt lat="44.99826" lon="6.02838">
        <ele>2138.04</ele>
        <time>2025-06-05T10:12:12Z</time>
      </trkpt>
      <trkpt lat="44.9982" lon="6.02814">
        <ele>2149.94</ele>
        <time>2025-06-05T10:13:25Z</time>
      </trkpt>
      <trkpt lat="44.99815" lon="6.0279">
        <ele>2155.83</ele>
        <time>2025-06-05T10:14:39Z</time>
      </trkpt>
      <trkpt lat="44.99801" lon="6.02773">
        <ele>2163.73</ele>
        <time>2025-06-05T10:15:57Z</time>
      </trkpt>
      <trkpt lat="44.99782" lon="6.02771">
        <ele>2173.53</ele>
        <time>2025-06-05T10:20:17Z</time>
      </trkpt>
      <trkpt lat="44.99765" lon="6.02778">
        <ele>2171.03</ele>
        <time>2025-06-05T10:21:02Z</time>
      </trkpt>
      <trkpt lat="44.99746" lon="6.02782">
        <ele>2175.61</ele>
        <time>2025-06-05T10:21:49Z</time>
      </trkpt>
      <trkpt lat="44.99728" lon="6.02778">
        <ele>2183.57</ele>
        <time>2025-06-05T10:22:21Z</time>
      </trkpt>
      <trkpt lat="44.9971" lon="6.02781">
        <ele>2183.77</ele>
        <time>2025-06-05T10:22:58Z</time>
      </trkpt>
      <trkpt lat="44.99692" lon="6.02777">
        <ele>2197.3</ele>
        <time>2025-06-05T10:24:14Z</time>
      </trkpt>
      <trkpt lat="44.99676" lon="6.02765">
        <ele>2204.68</ele>
        <time>2025-06-05T10:25:00Z</time>
      </trkpt>
      <trkpt lat="44.99659" lon="6.02755">
        <ele>2205.14</ele>
        <time>2025-06-05T10:26:04Z</time>
      </trkpt>
      <trkpt lat="44.99641" lon="6.02758">
        <ele>2205.95</ele>
        <time>2025-06-05T10:27:07Z</time>
      </trkpt>
      <trkpt lat="44.99622" lon="6.02762">
        <ele>2207.78</ele>
        <time>2025-06-05T10:28:44Z</time>
      </trkpt>
      <trkpt lat="44.99606" lon="6.02774">
        <ele>2211.47</ele>
        <time>2025-06-05T10:29:31Z</time>
      </trkpt>
      <trkpt lat="44.99588" lon="6.02777">
        <ele>2216.77</ele>
        <time>2025-06-05T10:30:11Z</time>
      </trkpt>
      <trkpt lat="44.99571" lon="6.02774">
        <ele>2220.65</ele>
        <time>2025-06-05T10:30:47Z</time>
      </trkpt>
      <trkpt lat="44.99553" lon="6.02781">
        <ele>2220.72</ele>
        <time>2025-06-05T10:31:41Z</time>
      </trkpt>
      <trkpt lat="44.99535" lon="6.02778">
        <ele>2223.74</ele>
        <time>2025-06-05T10:32:31Z</time>
      </trkpt>
      <trkpt lat="44.99518" lon="6.02787">
        <ele>2228.65</ele>
        <time>2025-06-05T10:33:41Z</time>
      </trkpt>
      <trkpt lat="44.99506" lon="6.02807">
        <ele>2222.39</ele>
        <time>2025-06-05T10:34:32Z</time>
      </trkpt>
      <trkpt lat="44.995" lon="6.02832">
        <ele>2224.71</ele>
        <time>2025-06-05T10:35:12Z</time>
      </trkpt>
      <trkpt lat="44.99486" lon="6.02849">
        <ele>2232.46</ele>
        <time>2025-06-05T10:38:10Z</time>
      </trkpt>
      <trkpt lat="44.99471" lon="6.02863">
        <ele>2243.36</ele>
        <time>2025-06-05T10:39:25Z</time>
      </trkpt>
      <trkpt lat="44.99453" lon="6.02869">
        <ele>2245.02</ele>
        <time>2025-06-05T10:40:18Z</time>
      </trkpt>
      <trkpt lat="44.99438" lon="6.02882">
        <ele>2247.65</ele>
        <time>2025-06-05T10:41:15Z</time>
      </trkpt>
      <trkpt lat="44.99421" lon="6.02893">
        <ele>2259.06</ele>
        <time>2025-06-05T10:42:08Z</time>
      </trkpt>
      <trkpt lat="44.9941" lon="6.02914">
        <ele>2274.74</ele>
        <time>2025-06-05T10:58:43Z</time>
      </trkpt>
      <trkpt lat="44.99421" lon="6.02894">
        <ele>2270.71</ele>
        <time>2025-06-05T11:01:36Z</time>
      </trkpt>
      <trkpt lat="44.99425" lon="6.02867">
        <ele>2270.74</ele>
        <time>2025-06-05T11:01:57Z</time>
      </trkpt>
      <trkpt lat="44.99419" lon="6.02841">
        <ele>2270.74</ele>
        <time>2025-06-05T11:02:11Z</time>
      </trkpt>
      <trkpt lat="44.99414" lon="6.02867">
        <ele>2269.74</ele>
        <time>2025-06-05T11:02:47Z</time>
      </trkpt>
      <trkpt lat="44.99429" lon="6.02897">
        <ele>2282.94</ele>
        <time>2025-06-05T11:40:39Z</time>
      </trkpt>
      <trkpt lat="44.9944" lon="6.02876">
        <ele>2265.83</ele>
        <time>2025-06-05T11:45:55Z</time>
      </trkpt>
      <trkpt lat="44.99458" lon="6.02871">
        <ele>2259.05</ele>
        <time>2025-06-05T11:47:54Z</time>
      </trkpt>
      <trkpt lat="44.99476" lon="6.02868">
        <ele>2252.02</ele>
        <time>2025-06-05T11:48:34Z</time>
      </trkpt>
      <trkpt lat="44.9949" lon="6.0285">
        <ele>2243.83</ele>
        <time>2025-06-05T11:49:05Z</time>
      </trkpt>
      <trkpt lat="44.99497" lon="6.02827">
        <ele>2237.74</ele>
        <time>2025-06-05T11:49:32Z</time>
      </trkpt>
      <trkpt lat="44.99508" lon="6.02806">
        <ele>2234.74</ele>
        <time>2025-06-05T11:49:52Z</time>
      </trkpt>
      <trkpt lat="44.99525" lon="6.02798">
        <ele>2227.78</ele>
        <time>2025-06-05T11:50:15Z</time>
      </trkpt>
      <trkpt lat="44.99543" lon="6.02793">
        <ele>2227.75</ele>
        <time>2025-06-05T11:50:38Z</time>
      </trkpt>
      <trkpt lat="44.99561" lon="6.02787">
        <ele>2225.95</ele>
        <time>2025-06-05T11:51:10Z</time>
      </trkpt>
      <trkpt lat="44.99578" lon="6.02777">
        <ele>2224.74</ele>
        <time>2025-06-05T11:51:38Z</time>
      </trkpt>
      <trkpt lat="44.99596" lon="6.0278">
        <ele>2223.47</ele>
        <time>2025-06-05T11:52:00Z</time>
      </trkpt>
      <trkpt lat="44.99613" lon="6.02769">
        <ele>2223.01</ele>
        <time>2025-06-05T11:52:22Z</time>
      </trkpt>
      <trkpt lat="44.99631" lon="6.02763">
        <ele>2214.86</ele>
        <time>2025-06-05T11:52:53Z</time>
      </trkpt>
      <trkpt lat="44.99649" lon="6.02756">
        <ele>2210.98</ele>
        <time>2025-06-05T11:53:48Z</time>
      </trkpt>
      <trkpt lat="44.99667" lon="6.02761">
        <ele>2208.76</ele>
        <time>2025-06-05T11:54:30Z</time>
      </trkpt>
      <trkpt lat="44.99681" lon="6.02776">
        <ele>2204.45</ele>
        <time>2025-06-05T11:55:04Z</time>
      </trkpt>
      <trkpt lat="44.99698" lon="6.02784">
        <ele>2198.83</ele>
        <time>2025-06-05T11:55:29Z</time>
      </trkpt>
      <trkpt lat="44.99716" lon="6.02783">
        <ele>2194.83</ele>
        <time>2025-06-05T11:56:15Z</time>
      </trkpt>
      <trkpt lat="44.99735" lon="6.02785">
        <ele>2189.04</ele>
        <time>2025-06-05T11:56:39Z</time>
      </trkpt>
      <trkpt lat="44.99753" lon="6.02788">
        <ele>2185.04</ele>
        <time>2025-06-05T11:57:01Z</time>
      </trkpt>
      <trkpt lat="44.99769" lon="6.02778">
        <ele>2179.8</ele>
        <time>2025-06-05T11:57:42Z</time>
      </trkpt>
      <trkpt lat="44.99788" lon="6.02779">
        <ele>2180.74</ele>
        <time>2025-06-05T11:58:16Z</time>
      </trkpt>
      <trkpt lat="44.99804" lon="6.02791">
        <ele>2167.75</ele>
        <time>2025-06-05T11:59:17Z</time>
      </trkpt>
      <trkpt lat="44.99815" lon="6.02812">
        <ele>2157.83</ele>
        <time>2025-06-05T11:59:55Z</time>
      </trkpt>
      <trkpt lat="44.99821" lon="6.02836">
        <ele>2147.45</ele>
        <time>2025-06-05T12:00:42Z</time>
      </trkpt>
      <trkpt lat="44.99824" lon="6.02861">
        <ele>2139.77</ele>
        <time>2025-06-05T12:01:39Z</time>
      </trkpt>
      <trkpt lat="44.9983" lon="6.02886">
        <ele>2133.74</ele>
        <time>2025-06-05T12:02:30Z</time>
      </trkpt>
      <trkpt lat="44.99846" lon="6.02898">
        <ele>2126.37</ele>
        <time>2025-06-05T12:03:28Z</time>
      </trkpt>
      <trkpt lat="44.9986" lon="6.02915">
        <ele>2118.04</ele>
        <time>2025-06-05T12:04:12Z</time>
      </trkpt>
      <trkpt lat="44.99868" lon="6.02939">
        <ele>2108.77</ele>
        <time>2025-06-05T12:05:02Z</time>
      </trkpt>
      <trkpt lat="44.99876" lon="6.02961">
        <ele>2101.77</ele>
        <time>2025-06-05T12:05:35Z</time>
      </trkpt>
      <trkpt lat="44.99885" lon="6.02985">
        <ele>2092.14</ele>
        <time>2025-06-05T12:06:12Z</time>
      </trkpt>
      <trkpt lat="44.99899" lon="6.03">
        <ele>2085.02</ele>
        <time>2025-06-05T12:06:57Z</time>
      </trkpt>
      <trkpt lat="44.99897" lon="6.03027">
        <ele>2074.04</ele>
        <time>2025-06-05T12:08:07Z</time>
      </trkpt>
      <trkpt lat="44.99899" lon="6.03053">
        <ele>2060.74</ele>
        <time>2025-06-05T12:10:50Z</time>
      </trkpt>
      <trkpt lat="44.99898" lon="6.03079">
        <ele>2054.04</ele>
        <time>2025-06-05T12:11:37Z</time>
      </trkpt>
      <trkpt lat="44.99893" lon="6.03103">
        <ele>2044.14</ele>
        <time>2025-06-05T12:13:11Z</time>
      </trkpt>
      <trkpt lat="44.99896" lon="6.03129">
        <ele>2036.99</ele>
        <time>2025-06-05T12:14:32Z</time>
      </trkpt>
      <trkpt lat="44.9988" lon="6.03139">
        <ele>2026.95</ele>
        <time>2025-06-05T12:15:20Z</time>
      </trkpt>
      <trkpt lat="44.99864" lon="6.03127">
        <ele>2022.04</ele>
        <time>2025-06-05T12:16:39Z</time>
      </trkpt>
      <trkpt lat="44.99851" lon="6.03145">
        <ele>2009.83</ele>
        <time>2025-06-05T12:17:25Z</time>
      </trkpt>
      <trkpt lat="44.99839" lon="6.03163">
        <ele>2000.74</ele>
        <time>2025-06-05T12:18:05Z</time>
      </trkpt>
      <trkpt lat="44.99828" lon="6.03185">
        <ele>1989.37</ele>
        <time>2025-06-05T12:18:40Z</time>
      </trkpt>
      <trkpt lat="44.99822" lon="6.03209">
        <ele>1984.76</ele>
        <time>2025-06-05T12:21:09Z</time>
      </trkpt>
      <trkpt lat="44.99815" lon="6.03233">
        <ele>1977.77</ele>
        <time>2025-06-05T12:21:51Z</time>
      </trkpt>
      <trkpt lat="44.99807" lon="6.03258">
        <ele>1967.13</ele>
        <time>2025-06-05T12:22:33Z</time>
      </trkpt>
      <trkpt lat="44.99801" lon="6.03282">
        <ele>1955.12</ele>
        <time>2025-06-05T12:23:56Z</time>
      </trkpt>
      <trkpt lat="44.99798" lon="6.03307">
        <ele>1944.75</ele>
        <time>2025-06-05T12:24:52Z</time>
      </trkpt>
      <trkpt lat="44.99805" lon="6.03331">
        <ele>1939.83</ele>
        <time>2025-06-05T12:25:44Z</time>
      </trkpt>
      <trkpt lat="44.99822" lon="6.03339">
        <ele>1928.19</ele>
        <time>2025-06-05T12:26:27Z</time>
      </trkpt>
      <trkpt lat="44.99838" lon="6.03351">
        <ele>1917.75</ele>
        <time>2025-06-05T12:27:16Z</time>
      </trkpt>
      <trkpt lat="44.99857" lon="6.03357">
        <ele>1907.74</ele>
        <time>2025-06-05T12:28:05Z</time>
      </trkpt>
      <trkpt lat="44.99874" lon="6.03368">
        <ele>1902.83</ele>
        <time>2025-06-05T12:28:24Z</time>
      </trkpt>
      <trkpt lat="44.9989" lon="6.03379">
        <ele>1900.84</ele>
        <time>2025-06-05T12:28:57Z</time>
      </trkpt>
      <trkpt lat="44.99908" lon="6.03387">
        <ele>1895.74</ele>
        <time>2025-06-05T12:29:26Z</time>
      </trkpt>
      <trkpt lat="44.99924" lon="6.03398">
        <ele>1889.68</ele>
        <time>2025-06-05T12:32:07Z</time>
      </trkpt>
      <trkpt lat="44.99941" lon="6.03408">
        <ele>1884.78</ele>
        <time>2025-06-05T12:32:44Z</time>
      </trkpt>
      <trkpt lat="44.99958" lon="6.03419">
        <ele>1876.74</ele>
        <time>2025-06-05T12:33:12Z</time>
      </trkpt>
      <trkpt lat="44.99974" lon="6.03431">
        <ele>1873.77</ele>
        <time>2025-06-05T12:33:45Z</time>
      </trkpt>
      <trkpt lat="44.99993" lon="6.03432">
        <ele>1867.07</ele>
        <time>2025-06-05T12:34:14Z</time>
      </trkpt>
      <trkpt lat="45.0001" lon="6.03439">
        <ele>1861.74</ele>
        <time>2025-06-05T12:34:55Z</time>
      </trkpt>
      <trkpt lat="45.00028" lon="6.0345">
        <ele>1851.34</ele>
        <time>2025-06-05T12:35:51Z</time>
      </trkpt>
      <trkpt lat="45.00045" lon="6.03454">
        <ele>1839.78</ele>
        <time>2025-06-05T12:37:23Z</time>
      </trkpt>
      <trkpt lat="45.00063" lon="6.03461">
        <ele>1833.74</ele>
        <time>2025-06-05T12:38:52Z</time>
      </trkpt>
      <trkpt lat="45.0008" lon="6.03471">
        <ele>1828.44</ele>
        <time>2025-06-05T12:41:40Z</time>
      </trkpt>
      <trkpt lat="45.00089" lon="6.03494">
        <ele>1818.74</ele>
        <time>2025-06-05T12:43:06Z</time>
      </trkpt>
      <trkpt lat="45.00107" lon="6.03503">
        <ele>1808.74</ele>
        <time>2025-06-05T12:43:57Z</time>
      </trkpt>
      <trkpt lat="45.00125" lon="6.03509">
        <ele>1806.04</ele>
        <time>2025-06-05T12:44:44Z</time>
      </trkpt>
      <trkpt lat="45.0014" lon="6.03524">
        <ele>1791.98</ele>
        <time>2025-06-05T12:45:44Z</time>
      </trkpt>
      <trkpt lat="45.00158" lon="6.03523">
        <ele>1781.17</ele>
        <time>2025-06-05T12:46:35Z</time>
      </trkpt>
      <trkpt lat="45.00175" lon="6.03515">
        <ele>1772.83</ele>
        <time>2025-06-05T12:47:25Z</time>
      </trkpt>
      <trkpt lat="45.00193" lon="6.03519">
        <ele>1768.74</ele>
        <time>2025-06-05T12:48:08Z</time>
      </trkpt>
      <trkpt lat="45.00208" lon="6.03533">
        <ele>1765.44</ele>
        <time>2025-06-05T12:48:52Z</time>
      </trkpt>
      <trkpt lat="45.00225" lon="6.03541">
        <ele>1759.04</ele>
        <time>2025-06-05T12:49:24Z</time>
      </trkpt>
      <trkpt lat="45.00244" lon="6.03543">
        <ele>1753.07</ele>
        <time>2025-06-05T12:50:03Z</time>
      </trkpt>
      <trkpt lat="45.00259" lon="6.03559">
        <ele>1745.74</ele>
        <time>2025-06-05T12:50:43Z</time>
      </trkpt>
      <trkpt lat="45.00278" lon="6.03561">
        <ele>1742.83</ele>
        <time>2025-06-05T12:51:08Z</time>
      </trkpt>
      <trkpt lat="45.00296" lon="6.03566">
        <ele>1738.74</ele>
        <time>2025-06-05T12:51:41Z</time>
      </trkpt>
      <trkpt lat="45.0031" lon="6.03582">
        <ele>1736.01</ele>
        <time>2025-06-05T12:52:05Z</time>
      </trkpt>
      <trkpt lat="45.00327" lon="6.03592">
        <ele>1727.45</ele>
        <time>2025-06-05T12:52:39Z</time>
      </trkpt>
      <trkpt lat="45.00345" lon="6.03597">
        <ele>1710.69</ele>
        <time>2025-06-05T12:57:11Z</time>
      </trkpt>
      <trkpt lat="45.00356" lon="6.03618">
        <ele>1704.04</ele>
        <time>2025-06-05T12:58:04Z</time>
      </trkpt>
      <trkpt lat="45.00369" lon="6.03636">
        <ele>1700.74</ele>
        <time>2025-06-05T12:58:36Z</time>
      </trkpt>
      <trkpt lat="45.00387" lon="6.03645">
        <ele>1697.44</ele>
        <time>2025-06-05T12:59:07Z</time>
      </trkpt>
      <trkpt lat="45.00405" lon="6.03657">
        <ele>1694.04</ele>
        <time>2025-06-05T12:59:33Z</time>
      </trkpt>
      <trkpt lat="45.00422" lon="6.03666">
        <ele>1689.04</ele>
        <time>2025-06-05T13:00:07Z</time>
      </trkpt>
      <trkpt lat="45.00438" lon="6.0368">
        <ele>1682.77</ele>
        <time>2025-06-05T13:00:47Z</time>
      </trkpt>
      <trkpt lat="45.00454" lon="6.0369">
        <ele>1679.95</ele>
        <time>2025-06-05T13:01:15Z</time>
      </trkpt>
      <trkpt lat="45.0047" lon="6.03703">
        <ele>1677.74</ele>
        <time>2025-06-05T13:01:59Z</time>
      </trkpt>
      <trkpt lat="45.00479" lon="6.03725">
        <ele>1669.71</ele>
        <time>2025-06-05T13:02:39Z</time>
      </trkpt>
      <trkpt lat="45.00494" lon="6.0374">
        <ele>1664.72</ele>
        <time>2025-06-05T13:03:03Z</time>
      </trkpt>
      <trkpt lat="45.00509" lon="6.03756">
        <ele>1665.75</ele>
        <time>2025-06-05T13:03:43Z</time>
      </trkpt>
      <trkpt lat="45.00522" lon="6.03773">
        <ele>1656.77</ele>
        <time>2025-06-05T13:04:25Z</time>
      </trkpt>
      <trkpt lat="45.00531" lon="6.03797">
        <ele>1650.74</ele>
        <time>2025-06-05T13:05:05Z</time>
      </trkpt>
      <trkpt lat="45.00546" lon="6.03812">
        <ele>1646.54</ele>
        <time>2025-06-05T13:05:33Z</time>
      </trkpt>
      <trkpt lat="45.00563" lon="6.0382">
        <ele>1639.04</ele>
        <time>2025-06-05T13:06:03Z</time>
      </trkpt>
      <trkpt lat="45.0058" lon="6.03829">
        <ele>1635.12</ele>
        <time>2025-06-05T13:06:23Z</time>
      </trkpt>
      <trkpt lat="45.00598" lon="6.03834">
        <ele>1633.56</ele>
        <time>2025-06-05T13:07:04Z</time>
      </trkpt>
      <trkpt lat="45.00616" lon="6.03841">
        <ele>1628.38</ele>
        <time>2025-06-05T13:07:24Z</time>
      </trkpt>
      <trkpt lat="45.00634" lon="6.03841">
        <ele>1629.71</ele>
        <time>2025-06-05T13:07:53Z</time>
      </trkpt>
      <trkpt lat="45.00651" lon="6.03853">
        <ele>1628.77</ele>
        <time>2025-06-05T13:08:11Z</time>
      </trkpt>
      <trkpt lat="45.00669" lon="6.0385">
        <ele>1628.75</ele>
        <time>2025-06-05T13:08:47Z</time>
      </trkpt>
      <trkpt lat="45.00686" lon="6.03862">
        <ele>1624.74</ele>
        <time>2025-06-05T13:09:27Z</time>
      </trkpt>
      <trkpt lat="45.00702" lon="6.03876">
        <ele>1617.44</ele>
        <time>2025-06-05T13:14:05Z</time>
      </trkpt>
      <trkpt lat="45.00717" lon="6.0389">
        <ele>1612.68</ele>
        <time>2025-06-05T13:15:00Z</time>
      </trkpt>
      <trkpt lat="45.0073" lon="6.03909">
        <ele>1602.34</ele>
        <time>2025-06-05T13:15:48Z</time>
      </trkpt>
      <trkpt lat="45.00747" lon="6.03922">
        <ele>1595.04</ele>
        <time>2025-06-05T13:16:16Z</time>
      </trkpt>
      <trkpt lat="45.00761" lon="6.0394">
        <ele>1585.04</ele>
        <time>2025-06-05T13:17:15Z</time>
      </trkpt>
      <trkpt lat="45.00772" lon="6.03962">
        <ele>1568.53</ele>
        <time>2025-06-05T13:18:23Z</time>
      </trkpt>
      <trkpt lat="45.00787" lon="6.03977">
        <ele>1559.98</ele>
        <time>2025-06-05T13:19:00Z</time>
      </trkpt>
      <trkpt lat="45.00799" lon="6.03996">
        <ele>1543.1</ele>
        <time>2025-06-05T13:20:13Z</time>
      </trkpt>
      <trkpt lat="45.00812" lon="6.04017">
        <ele>1529.74</ele>
        <time>2025-06-05T13:21:28Z</time>
      </trkpt>
      <trkpt lat="45.00803" lon="6.04042">
        <ele>1515.04</ele>
        <time>2025-06-05T13:22:45Z</time>
      </trkpt>
      <trkpt lat="45.00805" lon="6.0407">
        <ele>1509.64</ele>
        <time>2025-06-05T13:23:41Z</time>
      </trkpt>
      <trkpt lat="45.00819" lon="6.04087">
        <ele>1501.13</ele>
        <time>2025-06-05T13:24:02Z</time>
      </trkpt>
      <trkpt lat="45.00833" lon="6.04103">
        <ele>1488.86</ele>
        <time>2025-06-05T13:24:57Z</time>
      </trkpt>
      <trkpt lat="45.00849" lon="6.04114">
        <ele>1482.86</ele>
        <time>2025-06-05T13:25:28Z</time>
      </trkpt>
      <trkpt lat="45.00866" lon="6.04124">
        <ele>1481.78</ele>
        <time>2025-06-05T13:37:28Z</time>
      </trkpt>
      <trkpt lat="45.00885" lon="6.04121">
        <ele>1484.68</ele>
        <time>2025-06-05T13:37:58Z</time>
      </trkpt>
      <trkpt lat="45.00896" lon="6.04101">
        <ele>1485.74</ele>
        <time>2025-06-05T13:38:15Z</time>
      </trkpt>
      <trkpt lat="45.00907" lon="6.0408">
        <ele>1481.04</ele>
        <time>2025-06-05T13:38:32Z</time>
      </trkpt>
      <trkpt lat="45.00921" lon="6.04063">
        <ele>1481.04</ele>
        <time>2025-06-05T13:38:57Z</time>
      </trkpt>
      <trkpt lat="45.00939" lon="6.04064">
        <ele>1477.77</ele>
        <time>2025-06-05T13:39:31Z</time>
      </trkpt>
      <trkpt lat="45.00958" lon="6.0406">
        <ele>1474.75</ele>
        <time>2025-06-05T13:39:54Z</time>
      </trkpt>
      <trkpt lat="45.00976" lon="6.04058">
        <ele>1474.01</ele>
        <time>2025-06-05T13:40:11Z</time>
      </trkpt>
      <trkpt lat="45.00995" lon="6.04059">
        <ele>1472.71</ele>
        <time>2025-06-05T13:40:28Z</time>
      </trkpt>
      <trkpt lat="45.01012" lon="6.04048">
        <ele>1470.05</ele>
        <time>2025-06-05T13:40:44Z</time>
      </trkpt>
      <trkpt lat="45.0103" lon="6.04045">
        <ele>1470.67</ele>
        <time>2025-06-05T13:41:06Z</time>
      </trkpt>
      <trkpt lat="45.01048" lon="6.04037">
        <ele>1465.53</ele>
        <time>2025-06-05T13:41:27Z</time>
      </trkpt>
      <trkpt lat="45.01066" lon="6.04042">
        <ele>1461.76</ele>
        <time>2025-06-05T13:41:51Z</time>
      </trkpt>
      <trkpt lat="45.01082" lon="6.04029">
        <ele>1457.73</ele>
        <time>2025-06-05T13:42:05Z</time>
      </trkpt>
      <trkpt lat="45.01097" lon="6.04014">
        <ele>1456.77</ele>
        <time>2025-06-05T13:42:23Z</time>
      </trkpt>
      <trkpt lat="45.01114" lon="6.04004">
        <ele>1456.73</ele>
        <time>2025-06-05T13:42:48Z</time>
      </trkpt>
      <trkpt lat="45.01128" lon="6.03989">
        <ele>1452.83</ele>
        <time>2025-06-05T13:43:07Z</time>
      </trkpt>
      <trkpt lat="45.01147" lon="6.0399">
        <ele>1453.65</ele>
        <time>2025-06-05T13:43:58Z</time>
      </trkpt>
      <trkpt lat="45.01166" lon="6.03989">
        <ele>1458.41</ele>
        <time>2025-06-05T13:44:22Z</time>
      </trkpt>
      <trkpt lat="45.01183" lon="6.04">
        <ele>1464.41</ele>
        <time>2025-06-05T13:44:47Z</time>
      </trkpt>
      <trkpt lat="45.01199" lon="6.04013">
        <ele>1465.04</ele>
        <time>2025-06-05T13:45:06Z</time>
      </trkpt>
      <trkpt lat="45.01214" lon="6.03996">
        <ele>1460.04</ele>
        <time>2025-06-05T13:45:31Z</time>
      </trkpt>
      <trkpt lat="45.01212" lon="6.0397">
        <ele>1451.98</ele>
        <time>2025-06-05T13:45:47Z</time>
      </trkpt>
      <trkpt lat="45.01226" lon="6.03953">
        <ele>1455.35</ele>
        <time>2025-06-05T13:46:18Z</time>
      </trkpt>
      <trkpt lat="45.01243" lon="6.0395">
        <ele>1449.76</ele>
        <time>2025-06-05T13:47:04Z</time>
      </trkpt>
      <trkpt lat="45.0126" lon="6.0396">
        <ele>1446.66</ele>
        <time>2025-06-05T13:47:33Z</time>
      </trkpt>
      <trkpt lat="45.01277" lon="6.0397">
        <ele>1445.41</ele>
        <time>2025-06-05T13:48:23Z</time>
      </trkpt>
      <trkpt lat="45.01273" lon="6.03995">
        <ele>1441.83</ele>
        <time>2025-06-05T13:48:56Z</time>
      </trkpt>
      <trkpt lat="45.01284" lon="6.04017">
        <ele>1448.64</ele>
        <time>2025-06-05T13:49:45Z</time>
      </trkpt>
      <trkpt lat="45.01296" lon="6.04037">
        <ele>1456.74</ele>
        <time>2025-06-05T13:50:14Z</time>
      </trkpt>
      <trkpt lat="45.01311" lon="6.04052">
        <ele>1459.74</ele>
        <time>2025-06-05T13:50:55Z</time>
      </trkpt>
      <trkpt lat="45.01329" lon="6.04058">
        <ele>1463.95</ele>
        <time>2025-06-05T13:51:41Z</time>
      </trkpt>
      <trkpt lat="45.01342" lon="6.04076">
        <ele>1466.74</ele>
        <time>2025-06-05T13:52:17Z</time>
      </trkpt>
      <trkpt lat="45.01353" lon="6.04098">
        <ele>1468.83</ele>
        <time>2025-06-05T13:52:47Z</time>
      </trkpt>
      <trkpt lat="45.0137" lon="6.0411">
        <ele>1470.74</ele>
        <time>2025-06-05T13:53:17Z</time>
      </trkpt>
      <trkpt lat="45.01385" lon="6.04126">
        <ele>1477.74</ele>
        <time>2025-06-05T13:53:50Z</time>
      </trkpt>
      <trkpt lat="45.01402" lon="6.04134">
        <ele>1480.44</ele>
        <time>2025-06-05T13:54:14Z</time>
      </trkpt>
      <trkpt lat="45.01419" lon="6.04145">
        <ele>1482.73</ele>
        <time>2025-06-05T13:54:38Z</time>
      </trkpt>
      <trkpt lat="45.01434" lon="6.0416">
        <ele>1485.74</ele>
        <time>2025-06-05T13:55:04Z</time>
      </trkpt>
      <trkpt lat="45.01449" lon="6.04174">
        <ele>1488.72</ele>
        <time>2025-06-05T13:55:38Z</time>
      </trkpt>
      <trkpt lat="45.01464" lon="6.04189">
        <ele>1493.72</ele>
        <time>2025-06-05T13:56:12Z</time>
      </trkpt>
      <trkpt lat="45.01483" lon="6.04195">
        <ele>1494.66</ele>
        <time>2025-06-05T13:56:36Z</time>
      </trkpt>
      <trkpt lat="45.01501" lon="6.04197">
        <ele>1498.71</ele>
        <time>2025-06-05T13:57:04Z</time>
      </trkpt>
      <trkpt lat="45.0152" lon="6.04197">
        <ele>1499.74</ele>
        <time>2025-06-05T13:57:27Z</time>
      </trkpt>
      <trkpt lat="45.01537" lon="6.04188">
        <ele>1500.74</ele>
        <time>2025-06-05T13:57:49Z</time>
      </trkpt>
      <trkpt lat="45.01554" lon="6.04177">
        <ele>1502.74</ele>
        <time>2025-06-05T13:58:11Z</time>
      </trkpt>
      <trkpt lat="45.01572" lon="6.0417">
        <ele>1504.73</ele>
        <time>2025-06-05T13:58:37Z</time>
      </trkpt>
      <trkpt lat="45.01589" lon="6.04174">
        <ele>1511.04</ele>
        <time>2025-06-05T13:59:00Z</time>
      </trkpt>
      <trkpt lat="45.01605" lon="6.04162">
        <ele>1509.74</ele>
        <time>2025-06-05T13:59:31Z</time>
      </trkpt>
      <trkpt lat="45.01619" lon="6.04144">
        <ele>1504.44</ele>
        <time>2025-06-05T13:59:57Z</time>
      </trkpt>
      <trkpt lat="45.0163" lon="6.04124">
        <ele>1499.74</ele>
        <time>2025-06-05T14:00:28Z</time>
      </trkpt>
      <trkpt lat="45.0164" lon="6.04102">
        <ele>1496.04</ele>
        <time>2025-06-05T14:00:52Z</time>
      </trkpt>
      <trkpt lat="45.01647" lon="6.04077">
        <ele>1493.73</ele>
        <time>2025-06-05T14:01:20Z</time>
      </trkpt>
      <trkpt lat="45.01651" lon="6.04051">
        <ele>1488.74</ele>
        <time>2025-06-05T14:01:42Z</time>
      </trkpt>
      <trkpt lat="45.0165" lon="6.04025">
        <ele>1490.65</ele>
        <time>2025-06-05T14:02:03Z</time>
      </trkpt>
      <trkpt lat="45.01662" lon="6.04006">
        <ele>1487.68</ele>
        <time>2025-06-05T14:02:54Z</time>
      </trkpt>
      <trkpt lat="45.01672" lon="6.03983">
        <ele>1482.83</ele>
        <time>2025-06-05T14:03:07Z</time>
      </trkpt>
      <trkpt lat="45.01677" lon="6.03959">
        <ele>1475.83</ele>
        <time>2025-06-05T14:03:34Z</time>
      </trkpt>
      <trkpt lat="45.01688" lon="6.03939">
        <ele>1471.74</ele>
        <time>2025-06-05T14:04:17Z</time>
      </trkpt>
      <trkpt lat="45.01704" lon="6.03955">
        <ele>1486.65</ele>
        <time>2025-06-05T14:05:23Z</time>
      </trkpt>
      <trkpt lat="45.01718" lon="6.03974">
        <ele>1485.74</ele>
        <time>2025-06-05T14:05:45Z</time>
      </trkpt>
      <trkpt lat="45.01733" lon="6.03987">
        <ele>1484.44</ele>
        <time>2025-06-05T14:06:04Z</time>
      </trkpt>
      <trkpt lat="45.01748" lon="6.04002">
        <ele>1491.14</ele>
        <time>2025-06-05T14:06:28Z</time>
      </trkpt>
      <trkpt lat="45.01765" lon="6.04013">
        <ele>1495.83</ele>
        <time>2025-06-05T14:06:55Z</time>
      </trkpt>
      <trkpt lat="45.01777" lon="6.04033">
        <ele>1491.75</ele>
        <time>2025-06-05T14:07:16Z</time>
      </trkpt>
      <trkpt lat="45.01785" lon="6.04056">
        <ele>1496.41</ele>
        <time>2025-06-05T14:07:47Z</time>
      </trkpt>
      <trkpt lat="45.01786" lon="6.04082">
        <ele>1500.74</ele>
        <time>2025-06-05T14:08:46Z</time>
      </trkpt>
    </trkseg>
  </trk>
</gpx>